Du har inga inställningar för hoppväder.nu

Hoppväder.nu

Senast uppdaterat 02:28

UTC-tid

2019-12-06 kl. 01:28


Sol och måne

Solen går upp 8:41 och går ner 15:19 (beräknade cirkatider)
Nästa fullmåne blir om 6 dagar (2019-12-12)

METAR

ESGG (Landvetter)
(8 minuter sedan)
ESGG 060120Z 21024G34KT 2400 RA BKN005 05/05 Q0991 RWY 21 WET OR WATER PATCHES 51-100 PCT BA GOOD=



ESGP (Säve)
ESGP NIL=



ESIB (Såtenäs)
(8 minuter sedan)
ESIB 060120Z AUTO 20020KT 7000 -RA BR BKN011/// OVC022/// 06/06 Q0989=



ESGT (Trollhättan/Vänersborg)
(8 minuter sedan)
ESGT 060120Z AUTO 20018G28KT 3600 R15/P2000N R33///// -RA OVC004/// 06/05 Q0989=






TAF

ESGG (Landvetter)
(81 minuter sedan)
ESGG AMD 060007Z 0600/0624 22020G30KT 3000 RA BKN005 TEMPO 0600/0608 1400 BR -RA BKN003 BECMG 0608/0610 9999 NSW BKN012 TEMPO 0610/0615 BKN020 BECMG 0612/0614 24013KT BECMG 0615/0617 2000 RA BR BKN005=



ESGP (Säve)
ESGP



ESIB (Såtenäs)
ESIB



ESGT (Trollhättan/Vänersborg)
(478 minuter sedan)
ESGT 051730Z 0518/0522 23015G25KT 9999 BKN015 TEMPO 0518/0522 4000 RA DZ BKN011=





Kodnycklar till TAF och METAR






LHP

(Vårgårda är område I4c i Norra delen)

Prognos är inte uppdaterad




Spotting

Hur fungerar spotthjälpen och Vindkartan?

Markvind är ca 0 m/s.



Vindkartan

Senast uppdaterad 02:28




All data kommer från LFV.se